sensor_id;sensor_type;location;lat;lon;timestamp;temperature;humidity
6758;DHT22;3416;53.074;8.822;2023-11-19T00:00:07;8.00;99.90
6758;DHT22;3416;53.074;8.822;2023-11-19T00:02:37;7.90;99.90
6758;DHT22;3416;53.074;8.822;2023-11-19T00:05:04;7.90;99.90
6758;DHT22;3416;53.074;8.822;2023-11-19T00:07:34;7.90;99.90
6758;DHT22;3416;53.074;8.822;2023-11-19T00:10:03;7.90;99.90
6758;DHT22;3416;53.074;8.822;2023-11-19T00:12:32;7.90;99.90
6758;DHT22;3416;53.074;8.822;2023-11-19T00:14:59;8.00;99.90
6758;DHT22;3416;53.074;8.822;2023-11-19T00:17:26;8.00;99.90
6758;DHT22;3416;53.074;8.822;2023-11-19T00:19:53;8.00;99.90
6758;DHT22;3416;53.074;8.822;2023-11-19T00:22:20;8.00;99.90
6758;DHT22;3416;53.074;8.822;2023-11-19T00:24:49;8.00;99.90
6758;DHT22;3416;53.074;8.822;2023-11-19T00:27:17;8.10;99.90
6758;DHT22;3416;53.074;8.822;2023-11-19T00:29:44;8.10;99.90
6758;DHT22;3416;53.074;8.822;2023-11-19T00:32:12;8.10;99.90
6758;DHT22;3416;53.074;8.822;2023-11-19T00:34:39;8.10;99.90
6758;DHT22;3416;53.074;8.822;2023-11-19T00:37:05;8.10;99.90
6758;DHT22;3416;53.074;8.822;2023-11-19T00:42:40;8.10;99.90
6758;DHT22;3416;53.074;8.822;2023-11-19T00:45:07;8.20;99.90
6758;DHT22;3416;53.074;8.822;2023-11-19T00:47:47;8.30;99.90
6758;DHT22;3416;53.074;8.822;2023-11-19T00:50:14;8.30;99.90
6758;DHT22;3416;53.074;8.822;2023-11-19T00:52:41;8.30;99.90
6758;DHT22;3416;53.074;8.822;2023-11-19T00:55:09;8.30;99.90
6758;DHT22;3416;53.074;8.822;2023-11-19T00:57:37;8.40;99.90
6758;DHT22;3416;53.074;8.822;2023-11-19T01:00:06;8.50;99.90
6758;DHT22;3416;53.074;8.822;2023-11-19T01:02:43;8.50;99.90
6758;DHT22;3416;53.074;8.822;2023-11-19T01:05:11;8.60;99.90
6758;DHT22;3416;53.074;8.822;2023-11-19T01:07:39;8.70;99.90
6758;DHT22;3416;53.074;8.822;2023-11-19T01:10:07;8.80;99.90
6758;DHT22;3416;53.074;8.822;2023-11-19T01:12:34;8.70;99.90
6758;DHT22;3416;53.074;8.822;2023-11-19T01:15:01;8.70;99.90
6758;DHT22;3416;53.074;8.822;2023-11-19T01:17:29;8.70;99.90
6758;DHT22;3416;53.074;8.822;2023-11-19T01:19:57;8.70;99.90
6758;DHT22;3416;53.074;8.822;2023-11-19T01:22:24;8.70;99.90
6758;DHT22;3416;53.074;8.822;2023-11-19T01:24:52;8.70;99.90
6758;DHT22;3416;53.074;8.822;2023-11-19T01:27:19;8.80;99.90
6758;DHT22;3416;53.074;8.822;2023-11-19T01:29:46;8.80;99.90
6758;DHT22;3416;53.074;8.822;2023-11-19T01:32:13;8.90;99.90
6758;DHT22;3416;53.074;8.822;2023-11-19T01:34:42;8.90;99.90
6758;DHT22;3416;53.074;8.822;2023-11-19T01:37:08;8.90;99.90
6758;DHT22;3416;53.074;8.822;2023-11-19T01:39:38;8.90;99.90
6758;DHT22;3416;53.074;8.822;2023-11-19T01:42:05;8.90;99.90
6758;DHT22;3416;53.074;8.822;2023-11-19T01:44:32;8.90;99.90
6758;DHT22;3416;53.074;8.822;2023-11-19T01:46:59;9.00;99.90
6758;DHT22;3416;53.074;8.822;2023-11-19T01:49:27;9.10;99.90
6758;DHT22;3416;53.074;8.822;2023-11-19T01:51:57;9.20;99.90
6758;DHT22;3416;53.074;8.822;2023-11-19T01:54:24;9.20;99.90
6758;DHT22;3416;53.074;8.822;2023-11-19T01:56:53;9.20;99.90
6758;DHT22;3416;53.074;8.822;2023-11-19T01:59:22;9.20;99.90
6758;DHT22;3416;53.074;8.822;2023-11-19T02:01:52;9.30;99.90
6758;DHT22;3416;53.074;8.822;2023-11-19T02:04:20;9.40;99.90
6758;DHT22;3416;53.074;8.822;2023-11-19T02:06:48;9.50;99.90
6758;DHT22;3416;53.074;8.822;2023-11-19T02:09:19;9.60;99.90
6758;DHT22;3416;53.074;8.822;2023-11-19T02:11:46;9.70;99.90
6758;DHT22;3416;53.074;8.822;2023-11-19T02:14:17;9.70;99.90
6758;DHT22;3416;53.074;8.822;2023-11-19T02:16:43;9.70;99.90
6758;DHT22;3416;53.074;8.822;2023-11-19T02:19:10;9.80;99.90
6758;DHT22;3416;53.074;8.822;2023-11-19T02:21:37;9.90;99.90
6758;DHT22;3416;53.074;8.822;2023-11-19T02:24:08;10.00;99.90
6758;DHT22;3416;53.074;8.822;2023-11-19T02:26:42;10.10;99.90
6758;DHT22;3416;53.074;8.822;2023-11-19T02:29:12;10.20;99.90
6758;DHT22;3416;53.074;8.822;2023-11-19T02:31:39;10.30;99.90
6758;DHT22;3416;53.074;8.822;2023-11-19T02:34:05;10.40;99.90
6758;DHT22;3416;53.074;8.822;2023-11-19T02:36:33;10.40;99.90
6758;DHT22;3416;53.074;8.822;2023-11-19T02:39:00;10.50;99.90
6758;DHT22;3416;53.074;8.822;2023-11-19T02:41:27;10.40;99.90
6758;DHT22;3416;53.074;8.822;2023-11-19T02:43:54;10.50;99.90
6758;DHT22;3416;53.074;8.822;2023-11-19T02:46:22;10.60;99.90
6758;DHT22;3416;53.074;8.822;2023-11-19T02:48:49;10.60;99.90
6758;DHT22;3416;53.074;8.822;2023-11-19T02:51:17;10.60;99.90
6758;DHT22;3416;53.074;8.822;2023-11-19T02:53:44;10.60;99.90
6758;DHT22;3416;53.074;8.822;2023-11-19T02:56:13;10.70;99.90
6758;DHT22;3416;53.074;8.822;2023-11-19T02:58:46;10.70;99.90
6758;DHT22;3416;53.074;8.822;2023-11-19T03:01:14;10.80;99.90
6758;DHT22;3416;53.074;8.822;2023-11-19T03:03:50;10.90;99.90
6758;DHT22;3416;53.074;8.822;2023-11-19T03:06:20;10.90;99.90
6758;DHT22;3416;53.074;8.822;2023-11-19T03:08:47;11.00;99.90
6758;DHT22;3416;53.074;8.822;2023-11-19T03:11:14;11.00;99.90
6758;DHT22;3416;53.074;8.822;2023-11-19T03:13:41;11.00;99.90
6758;DHT22;3416;53.074;8.822;2023-11-19T03:16:08;11.10;99.90
6758;DHT22;3416;53.074;8.822;2023-11-19T03:18:35;11.10;99.90
6758;DHT22;3416;53.074;8.822;2023-11-19T03:21:03;11.10;99.90
6758;DHT22;3416;53.074;8.822;2023-11-19T03:23:30;11.20;99.90
6758;DHT22;3416;53.074;8.822;2023-11-19T03:25:57;11.20;99.90
6758;DHT22;3416;53.074;8.822;2023-11-19T03:28:24;11.30;99.90
6758;DHT22;3416;53.074;8.822;2023-11-19T03:30:51;11.30;99.90
6758;DHT22;3416;53.074;8.822;2023-11-19T03:33:18;11.20;99.90
6758;DHT22;3416;53.074;8.822;2023-11-19T03:35:45;11.20;99.90
6758;DHT22;3416;53.074;8.822;2023-11-19T03:38:13;11.20;99.90
6758;DHT22;3416;53.074;8.822;2023-11-19T03:40:41;11.20;99.90
6758;DHT22;3416;53.074;8.822;2023-11-19T03:43:08;11.20;99.90
6758;DHT22;3416;53.074;8.822;2023-11-19T03:45:35;11.20;99.90
6758;DHT22;3416;53.074;8.822;2023-11-19T03:48:03;11.30;99.90
6758;DHT22;3416;53.074;8.822;2023-11-19T03:50:30;11.30;99.90
6758;DHT22;3416;53.074;8.822;2023-11-19T03:52:56;11.30;99.90
6758;DHT22;3416;53.074;8.822;2023-11-19T03:55:24;11.40;99.90
6758;DHT22;3416;53.074;8.822;2023-11-19T03:57:51;11.40;99.90
6758;DHT22;3416;53.074;8.822;2023-11-19T04:00:18;11.40;99.90
6758;DHT22;3416;53.074;8.822;2023-11-19T04:02:46;11.40;99.90
6758;DHT22;3416;53.074;8.822;2023-11-19T04:05:13;11.40;99.90
6758;DHT22;3416;53.074;8.822;2023-11-19T04:07:40;11.40;99.90
6758;DHT22;3416;53.074;8.822;2023-11-19T04:10:07;11.40;99.90
6758;DHT22;3416;53.074;8.822;2023-11-19T04:12:35;11.40;99.90
6758;DHT22;3416;53.074;8.822;2023-11-19T04:15:03;11.50;99.90
6758;DHT22;3416;53.074;8.822;2023-11-19T04:17:30;11.60;99.90
6758;DHT22;3416;53.074;8.822;2023-11-19T04:19:57;11.60;99.90
6758;DHT22;3416;53.074;8.822;2023-11-19T04:22:24;11.60;99.90
6758;DHT22;3416;53.074;8.822;2023-11-19T04:24:51;11.60;99.90
6758;DHT22;3416;53.074;8.822;2023-11-19T04:27:18;11.60;99.90
6758;DHT22;3416;53.074;8.822;2023-11-19T04:29:46;11.60;99.90
6758;DHT22;3416;53.074;8.822;2023-11-19T04:32:14;11.60;99.90
6758;DHT22;3416;53.074;8.822;2023-11-19T04:34:41;11.60;99.90
6758;DHT22;3416;53.074;8.822;2023-11-19T04:37:07;11.60;99.90
6758;DHT22;3416;53.074;8.822;2023-11-19T04:39:35;11.70;99.90
6758;DHT22;3416;53.074;8.822;2023-11-19T04:42:03;11.70;99.90
6758;DHT22;3416;53.074;8.822;2023-11-19T04:44:32;11.70;99.90
6758;DHT22;3416;53.074;8.822;2023-11-19T04:47:00;11.70;99.90
6758;DHT22;3416;53.074;8.822;2023-11-19T04:49:27;11.70;99.90
6758;DHT22;3416;53.074;8.822;2023-11-19T04:51:53;11.80;99.90
6758;DHT22;3416;53.074;8.822;2023-11-19T04:54:20;11.80;99.90
6758;DHT22;3416;53.074;8.822;2023-11-19T04:56:47;11.80;99.90
6758;DHT22;3416;53.074;8.822;2023-11-19T04:59:14;11.80;99.90
6758;DHT22;3416;53.074;8.822;2023-11-19T05:01:41;11.80;99.90
6758;DHT22;3416;53.074;8.822;2023-11-19T05:04:09;11.80;99.90
6758;DHT22;3416;53.074;8.822;2023-11-19T05:06:36;11.80;99.90
6758;DHT22;3416;53.074;8.822;2023-11-19T05:09:03;11.80;99.90
6758;DHT22;3416;53.074;8.822;2023-11-19T05:11:32;11.80;99.90
6758;DHT22;3416;53.074;8.822;2023-11-19T05:13:59;11.80;99.90
6758;DHT22;3416;53.074;8.822;2023-11-19T05:16:26;11.80;99.90
6758;DHT22;3416;53.074;8.822;2023-11-19T05:18:53;11.90;99.90
6758;DHT22;3416;53.074;8.822;2023-11-19T05:21:21;11.90;99.90
6758;DHT22;3416;53.074;8.822;2023-11-19T05:23:48;11.90;99.90
6758;DHT22;3416;53.074;8.822;2023-11-19T05:26:19;11.90;99.90
6758;DHT22;3416;53.074;8.822;2023-11-19T05:28:46;11.90;99.90
6758;DHT22;3416;53.074;8.822;2023-11-19T05:31:13;12.00;99.90
6758;DHT22;3416;53.074;8.822;2023-11-19T05:33:40;12.00;99.90
6758;DHT22;3416;53.074;8.822;2023-11-19T05:36:07;12.00;99.90
6758;DHT22;3416;53.074;8.822;2023-11-19T05:38:36;11.90;99.90
6758;DHT22;3416;53.074;8.822;2023-11-19T05:41:03;11.90;99.90
6758;DHT22;3416;53.074;8.822;2023-11-19T05:43:30;12.00;99.90
6758;DHT22;3416;53.074;8.822;2023-11-19T05:45:57;12.10;99.90
6758;DHT22;3416;53.074;8.822;2023-11-19T05:48:26;12.10;99.90
6758;DHT22;3416;53.074;8.822;2023-11-19T05:50:53;12.10;99.90
6758;DHT22;3416;53.074;8.822;2023-11-19T05:53:20;12.10;99.90
6758;DHT22;3416;53.074;8.822;2023-11-19T05:55:48;12.10;99.90
6758;DHT22;3416;53.074;8.822;2023-11-19T05:58:23;12.10;99.90
6758;DHT22;3416;53.074;8.822;2023-11-19T06:00:50;12.20;99.90
6758;DHT22;3416;53.074;8.822;2023-11-19T06:03:16;12.10;99.90
6758;DHT22;3416;53.074;8.822;2023-11-19T06:05:44;12.20;99.90
6758;DHT22;3416;53.074;8.822;2023-11-19T06:08:11;12.10;99.90
6758;DHT22;3416;53.074;8.822;2023-11-19T06:10:38;12.10;99.90
6758;DHT22;3416;53.074;8.822;2023-11-19T06:13:06;12.10;99.90
6758;DHT22;3416;53.074;8.822;2023-11-19T06:15:35;12.10;99.90
6758;DHT22;3416;53.074;8.822;2023-11-19T06:18:03;12.20;99.90
6758;DHT22;3416;53.074;8.822;2023-11-19T06:20:29;12.20;99.90
6758;DHT22;3416;53.074;8.822;2023-11-19T06:22:57;12.20;99.90
6758;DHT22;3416;53.074;8.822;2023-11-19T06:25:24;12.10;99.90
6758;DHT22;3416;53.074;8.822;2023-11-19T06:27:51;12.10;99.90
6758;DHT22;3416;53.074;8.822;2023-11-19T06:30:19;12.10;99.90
6758;DHT22;3416;53.074;8.822;2023-11-19T06:32:46;12.20;99.90
6758;DHT22;3416;53.074;8.822;2023-11-19T06:35:13;12.20;99.90
6758;DHT22;3416;53.074;8.822;2023-11-19T06:37:40;12.10;99.90
6758;DHT22;3416;53.074;8.822;2023-11-19T06:40:08;12.20;99.90
6758;DHT22;3416;53.074;8.822;2023-11-19T06:42:35;12.20;99.90
6758;DHT22;3416;53.074;8.822;2023-11-19T06:45:02;12.30;99.90
6758;DHT22;3416;53.074;8.822;2023-11-19T06:47:31;12.30;99.90
6758;DHT22;3416;53.074;8.822;2023-11-19T06:49:58;12.30;99.90
6758;DHT22;3416;53.074;8.822;2023-11-19T06:52:25;12.20;99.90
6758;DHT22;3416;53.074;8.822;2023-11-19T06:54:51;12.20;99.90
6758;DHT22;3416;53.074;8.822;2023-11-19T06:57:18;12.20;99.90
6758;DHT22;3416;53.074;8.822;2023-11-19T06:59:45;12.20;99.90
6758;DHT22;3416;53.074;8.822;2023-11-19T07:02:12;12.20;99.90
6758;DHT22;3416;53.074;8.822;2023-11-19T07:04:41;12.10;99.90
6758;DHT22;3416;53.074;8.822;2023-11-19T07:07:08;12.20;99.90
6758;DHT22;3416;53.074;8.822;2023-11-19T07:09:35;12.20;99.90
6758;DHT22;3416;53.074;8.822;2023-11-19T07:12:03;12.20;99.90
6758;DHT22;3416;53.074;8.822;2023-11-19T07:14:30;12.10;99.90
6758;DHT22;3416;53.074;8.822;2023-11-19T07:16:57;12.10;99.90
6758;DHT22;3416;53.074;8.822;2023-11-19T07:19:24;12.20;99.90
6758;DHT22;3416;53.074;8.822;2023-11-19T07:21:52;12.20;99.90
6758;DHT22;3416;53.074;8.822;2023-11-19T07:24:19;12.20;99.90
6758;DHT22;3416;53.074;8.822;2023-11-19T07:26:47;12.20;99.90
6758;DHT22;3416;53.074;8.822;2023-11-19T07:29:14;12.20;99.90
6758;DHT22;3416;53.074;8.822;2023-11-19T07:31:41;12.20;99.90
6758;DHT22;3416;53.074;8.822;2023-11-19T07:34:09;12.20;99.90
6758;DHT22;3416;53.074;8.822;2023-11-19T07:36:37;12.20;99.90
6758;DHT22;3416;53.074;8.822;2023-11-19T07:39:05;12.10;99.90
6758;DHT22;3416;53.074;8.822;2023-11-19T07:41:34;12.10;99.90
6758;DHT22;3416;53.074;8.822;2023-11-19T07:44:01;12.20;99.90
6758;DHT22;3416;53.074;8.822;2023-11-19T07:46:28;12.10;99.90
6758;DHT22;3416;53.074;8.822;2023-11-19T07:48:54;12.10;99.90
6758;DHT22;3416;53.074;8.822;2023-11-19T07:51:21;12.20;99.90
6758;DHT22;3416;53.074;8.822;2023-11-19T07:53:49;12.10;99.90
6758;DHT22;3416;53.074;8.822;2023-11-19T07:56:44;12.20;99.90
6758;DHT22;3416;53.074;8.822;2023-11-19T07:59:33;12.10;99.90
6758;DHT22;3416;53.074;8.822;2023-11-19T08:02:06;12.20;99.90
6758;DHT22;3416;53.074;8.822;2023-11-19T08:04:33;12.30;99.90
6758;DHT22;3416;53.074;8.822;2023-11-19T08:07:13;12.20;99.90
6758;DHT22;3416;53.074;8.822;2023-11-19T08:09:41;12.20;99.90
6758;DHT22;3416;53.074;8.822;2023-11-19T08:12:10;12.20;99.90
6758;DHT22;3416;53.074;8.822;2023-11-19T08:14:39;12.20;99.90
6758;DHT22;3416;53.074;8.822;2023-11-19T08:17:06;12.30;99.90
6758;DHT22;3416;53.074;8.822;2023-11-19T08:19:33;12.40;99.90
6758;DHT22;3416;53.074;8.822;2023-11-19T08:22:00;12.30;99.90
6758;DHT22;3416;53.074;8.822;2023-11-19T08:24:27;12.50;99.90
6758;DHT22;3416;53.074;8.822;2023-11-19T08:26:54;12.40;99.90
6758;DHT22;3416;53.074;8.822;2023-11-19T08:29:23;12.40;99.90
6758;DHT22;3416;53.074;8.822;2023-11-19T08:31:50;12.40;99.90
6758;DHT22;3416;53.074;8.822;2023-11-19T08:34:17;12.40;99.90
6758;DHT22;3416;53.074;8.822;2023-11-19T08:36:44;12.40;99.90
6758;DHT22;3416;53.074;8.822;2023-11-19T08:39:11;12.60;99.90
6758;DHT22;3416;53.074;8.822;2023-11-19T08:41:39;12.50;99.90
6758;DHT22;3416;53.074;8.822;2023-11-19T08:44:07;12.80;99.90
6758;DHT22;3416;53.074;8.822;2023-11-19T08:46:35;13.10;99.90
6758;DHT22;3416;53.074;8.822;2023-11-19T08:49:02;13.40;99.90
6758;DHT22;3416;53.074;8.822;2023-11-19T08:51:29;13.50;99.90
6758;DHT22;3416;53.074;8.822;2023-11-19T08:53:56;13.60;99.90
6758;DHT22;3416;53.074;8.822;2023-11-19T08:56:24;13.40;99.90
6758;DHT22;3416;53.074;8.822;2023-11-19T08:58:57;13.60;99.90
6758;DHT22;3416;53.074;8.822;2023-11-19T09:01:25;13.70;99.90
6758;DHT22;3416;53.074;8.822;2023-11-19T09:03:53;14.30;99.90
6758;DHT22;3416;53.074;8.822;2023-11-19T09:06:22;14.20;99.90
6758;DHT22;3416;53.074;8.822;2023-11-19T09:08:48;14.30;99.90
6758;DHT22;3416;53.074;8.822;2023-11-19T09:11:17;14.30;99.90
6758;DHT22;3416;53.074;8.822;2023-11-19T09:13:43;14.10;99.90
6758;DHT22;3416;53.074;8.822;2023-11-19T09:16:12;14.10;99.90
6758;DHT22;3416;53.074;8.822;2023-11-19T09:18:38;14.10;99.90
6758;DHT22;3416;53.074;8.822;2023-11-19T09:21:07;13.90;99.90
6758;DHT22;3416;53.074;8.822;2023-11-19T09:23:34;13.70;99.90
6758;DHT22;3416;53.074;8.822;2023-11-19T09:26:05;13.80;99.90
6758;DHT22;3416;53.074;8.822;2023-11-19T09:28:32;13.80;99.90
6758;DHT22;3416;53.074;8.822;2023-11-19T09:30:58;13.90;99.90
6758;DHT22;3416;53.074;8.822;2023-11-19T09:33:26;13.80;99.90
6758;DHT22;3416;53.074;8.822;2023-11-19T09:35:53;13.70;99.90
6758;DHT22;3416;53.074;8.822;2023-11-19T09:38:22;13.40;99.90
6758;DHT22;3416;53.074;8.822;2023-11-19T09:40:49;13.30;99.90
6758;DHT22;3416;53.074;8.822;2023-11-19T09:45:48;13.10;99.90
6758;DHT22;3416;53.074;8.822;2023-11-19T09:48:16;12.90;99.90
6758;DHT22;3416;53.074;8.822;2023-11-19T09:50:45;12.80;99.90
6758;DHT22;3416;53.074;8.822;2023-11-19T09:53:13;12.70;99.90
6758;DHT22;3416;53.074;8.822;2023-11-19T09:55:42;12.60;99.90
6758;DHT22;3416;53.074;8.822;2023-11-19T09:58:12;12.50;99.90
6758;DHT22;3416;53.074;8.822;2023-11-19T10:00:40;12.50;99.90
6758;DHT22;3416;53.074;8.822;2023-11-19T10:03:09;12.40;99.90
6758;DHT22;3416;53.074;8.822;2023-11-19T10:05:37;12.40;99.90
6758;DHT22;3416;53.074;8.822;2023-11-19T10:08:06;12.50;99.90
6758;DHT22;3416;53.074;8.822;2023-11-19T10:10:33;12.50;99.90
6758;DHT22;3416;53.074;8.822;2023-11-19T10:13:02;12.60;99.90
6758;DHT22;3416;53.074;8.822;2023-11-19T10:15:33;12.70;99.90
6758;DHT22;3416;53.074;8.822;2023-11-19T10:18:02;12.70;99.90
6758;DHT22;3416;53.074;8.822;2023-11-19T10:20:35;12.60;99.90
6758;DHT22;3416;53.074;8.822;2023-11-19T10:23:02;12.40;99.90
6758;DHT22;3416;53.074;8.822;2023-11-19T10:25:29;12.50;99.90
6758;DHT22;3416;53.074;8.822;2023-11-19T10:27:57;12.50;99.90
6758;DHT22;3416;53.074;8.822;2023-11-19T10:30:26;12.50;99.90
6758;DHT22;3416;53.074;8.822;2023-11-19T10:33:09;12.60;99.90
6758;DHT22;3416;53.074;8.822;2023-11-19T10:35:51;12.40;99.90
6758;DHT22;3416;53.074;8.822;2023-11-19T10:38:18;12.60;99.90
6758;DHT22;3416;53.074;8.822;2023-11-19T10:40:46;12.60;99.90
6758;DHT22;3416;53.074;8.822;2023-11-19T10:43:13;12.60;99.90
6758;DHT22;3416;53.074;8.822;2023-11-19T10:45:42;12.80;99.90
6758;DHT22;3416;53.074;8.822;2023-11-19T10:48:08;12.70;99.90
6758;DHT22;3416;53.074;8.822;2023-11-19T10:50:36;12.80;99.90
6758;DHT22;3416;53.074;8.822;2023-11-19T10:53:04;12.90;99.90
6758;DHT22;3416;53.074;8.822;2023-11-19T10:55:32;12.90;99.90
6758;DHT22;3416;53.074;8.822;2023-11-19T10:58:01;13.00;99.90
6758;DHT22;3416;53.074;8.822;2023-11-19T11:00:30;13.10;99.90
6758;DHT22;3416;53.074;8.822;2023-11-19T11:03:02;13.00;99.90
6758;DHT22;3416;53.074;8.822;2023-11-19T11:05:32;13.00;99.90
6758;DHT22;3416;53.074;8.822;2023-11-19T11:08:01;13.10;99.90
6758;DHT22;3416;53.074;8.822;2023-11-19T11:10:32;13.30;99.90
6758;DHT22;3416;53.074;8.822;2023-11-19T11:13:03;13.40;99.90
6758;DHT22;3416;53.074;8.822;2023-11-19T11:15:30;13.20;99.90
6758;DHT22;3416;53.074;8.822;2023-11-19T11:18:01;13.10;99.90
6758;DHT22;3416;53.074;8.822;2023-11-19T11:20:29;13.10;99.90
6758;DHT22;3416;53.074;8.822;2023-11-19T11:26:00;13.10;99.90
6758;DHT22;3416;53.074;8.822;2023-11-19T11:28:37;13.10;99.90
6758;DHT22;3416;53.074;8.822;2023-11-19T11:31:15;13.20;99.90
6758;DHT22;3416;53.074;8.822;2023-11-19T11:34:05;13.10;99.90
6758;DHT22;3416;53.074;8.822;2023-11-19T11:36:45;12.90;99.90
6758;DHT22;3416;53.074;8.822;2023-11-19T11:39:14;12.90;99.90
6758;DHT22;3416;53.074;8.822;2023-11-19T11:41:42;13.10;99.90
6758;DHT22;3416;53.074;8.822;2023-11-19T11:44:10;13.10;99.90
6758;DHT22;3416;53.074;8.822;2023-11-19T11:46:55;13.20;99.90
6758;DHT22;3416;53.074;8.822;2023-11-19T11:49:32;13.10;99.90
6758;DHT22;3416;53.074;8.822;2023-11-19T11:52:01;13.20;99.90
6758;DHT22;3416;53.074;8.822;2023-11-19T11:54:29;13.20;99.90
6758;DHT22;3416;53.074;8.822;2023-11-19T11:57:17;13.20;99.90
6758;DHT22;3416;53.074;8.822;2023-11-19T11:59:48;13.10;99.90
6758;DHT22;3416;53.074;8.822;2023-11-19T12:02:16;13.00;99.90
6758;DHT22;3416;53.074;8.822;2023-11-19T12:04:47;13.10;99.90
6758;DHT22;3416;53.074;8.822;2023-11-19T12:07:16;13.00;99.90
6758;DHT22;3416;53.074;8.822;2023-11-19T12:09:47;12.90;99.90
6758;DHT22;3416;53.074;8.822;2023-11-19T12:12:20;12.90;99.90
6758;DHT22;3416;53.074;8.822;2023-11-19T12:15:01;12.80;99.90
6758;DHT22;3416;53.074;8.822;2023-11-19T12:17:41;12.80;99.90
6758;DHT22;3416;53.074;8.822;2023-11-19T12:20:11;12.80;99.90
6758;DHT22;3416;53.074;8.822;2023-11-19T12:22:39;12.80;99.90
6758;DHT22;3416;53.074;8.822;2023-11-19T12:25:08;12.70;99.90
6758;DHT22;3416;53.074;8.822;2023-11-19T12:27:35;12.80;99.90
6758;DHT22;3416;53.074;8.822;2023-11-19T12:30:02;12.80;99.90
6758;DHT22;3416;53.074;8.822;2023-11-19T12:32:38;12.90;99.90
6758;DHT22;3416;53.074;8.822;2023-11-19T12:35:06;12.90;99.90
6758;DHT22;3416;53.074;8.822;2023-11-19T12:37:40;12.90;99.90
6758;DHT22;3416;53.074;8.822;2023-11-19T12:40:12;13.00;99.90
6758;DHT22;3416;53.074;8.822;2023-11-19T12:42:39;12.80;99.90
6758;DHT22;3416;53.074;8.822;2023-11-19T12:45:07;12.70;99.90
6758;DHT22;3416;53.074;8.822;2023-11-19T12:47:36;12.70;99.90
6758;DHT22;3416;53.074;8.822;2023-11-19T12:50:04;12.70;99.90
6758;DHT22;3416;53.074;8.822;2023-11-19T12:52:32;12.70;99.90
6758;DHT22;3416;53.074;8.822;2023-11-19T12:55:01;12.40;99.90
6758;DHT22;3416;53.074;8.822;2023-11-19T12:57:38;12.40;99.90
6758;DHT22;3416;53.074;8.822;2023-11-19T13:00:07;12.30;99.90
6758;DHT22;3416;53.074;8.822;2023-11-19T13:02:46;12.20;99.90
6758;DHT22;3416;53.074;8.822;2023-11-19T13:05:24;12.10;99.90
6758;DHT22;3416;53.074;8.822;2023-11-19T13:07:58;12.10;99.90
6758;DHT22;3416;53.074;8.822;2023-11-19T13:10:27;12.10;99.90
6758;DHT22;3416;53.074;8.822;2023-11-19T13:13:04;12.00;99.90
6758;DHT22;3416;53.074;8.822;2023-11-19T13:15:32;11.90;99.90
6758;DHT22;3416;53.074;8.822;2023-11-19T13:17:58;11.70;99.90
6758;DHT22;3416;53.074;8.822;2023-11-19T13:20:25;11.70;99.90
6758;DHT22;3416;53.074;8.822;2023-11-19T13:22:56;11.60;99.90
6758;DHT22;3416;53.074;8.822;2023-11-19T13:25:23;11.50;99.90
6758;DHT22;3416;53.074;8.822;2023-11-19T13:27:52;11.40;99.90
6758;DHT22;3416;53.074;8.822;2023-11-19T13:30:19;11.40;99.90
6758;DHT22;3416;53.074;8.822;2023-11-19T13:32:49;11.40;99.90
6758;DHT22;3416;53.074;8.822;2023-11-19T13:35:26;11.40;99.90
6758;DHT22;3416;53.074;8.822;2023-11-19T13:37:53;11.40;99.90
6758;DHT22;3416;53.074;8.822;2023-11-19T13:40:20;11.50;99.90
6758;DHT22;3416;53.074;8.822;2023-11-19T13:42:51;11.60;99.90
6758;DHT22;3416;53.074;8.822;2023-11-19T13:45:20;11.50;99.90
6758;DHT22;3416;53.074;8.822;2023-11-19T13:47:47;11.50;99.90
6758;DHT22;3416;53.074;8.822;2023-11-19T13:50:15;11.50;99.90
6758;DHT22;3416;53.074;8.822;2023-11-19T13:52:43;11.50;99.90
6758;DHT22;3416;53.074;8.822;2023-11-19T13:55:11;11.50;99.90
6758;DHT22;3416;53.074;8.822;2023-11-19T13:57:40;11.50;99.90
6758;DHT22;3416;53.074;8.822;2023-11-19T14:00:10;11.60;99.90
6758;DHT22;3416;53.074;8.822;2023-11-19T14:02:38;11.70;99.90
6758;DHT22;3416;53.074;8.822;2023-11-19T14:05:06;11.70;99.90
6758;DHT22;3416;53.074;8.822;2023-11-19T14:07:33;11.80;99.90
6758;DHT22;3416;53.074;8.822;2023-11-19T14:10:00;11.90;99.90
6758;DHT22;3416;53.074;8.822;2023-11-19T14:12:27;11.90;99.90
6758;DHT22;3416;53.074;8.822;2023-11-19T14:14:54;12.00;99.90
6758;DHT22;3416;53.074;8.822;2023-11-19T14:17:22;11.90;99.90
6758;DHT22;3416;53.074;8.822;2023-11-19T14:19:50;12.00;99.90
6758;DHT22;3416;53.074;8.822;2023-11-19T14:22:17;12.00;99.90
6758;DHT22;3416;53.074;8.822;2023-11-19T14:24:44;12.10;99.90
6758;DHT22;3416;53.074;8.822;2023-11-19T14:27:11;12.10;99.90
6758;DHT22;3416;53.074;8.822;2023-11-19T14:29:38;12.30;99.90
6758;DHT22;3416;53.074;8.822;2023-11-19T14:32:05;12.30;99.90
6758;DHT22;3416;53.074;8.822;2023-11-19T14:34:34;12.40;99.90
6758;DHT22;3416;53.074;8.822;2023-11-19T14:37:00;12.40;99.90
6758;DHT22;3416;53.074;8.822;2023-11-19T14:39:27;12.40;99.90
6758;DHT22;3416;53.074;8.822;2023-11-19T14:41:56;12.20;99.90
6758;DHT22;3416;53.074;8.822;2023-11-19T14:44:26;12.20;99.90
6758;DHT22;3416;53.074;8.822;2023-11-19T14:46:54;12.00;99.90
6758;DHT22;3416;53.074;8.822;2023-11-19T14:49:21;11.90;99.90
6758;DHT22;3416;53.074;8.822;2023-11-19T14:51:50;11.90;99.90
6758;DHT22;3416;53.074;8.822;2023-11-19T14:54:18;11.80;99.90
6758;DHT22;3416;53.074;8.822;2023-11-19T14:56:44;11.70;99.90
6758;DHT22;3416;53.074;8.822;2023-11-19T14:59:11;11.70;99.90
6758;DHT22;3416;53.074;8.822;2023-11-19T15:01:38;11.80;99.90
6758;DHT22;3416;53.074;8.822;2023-11-19T15:04:05;11.70;99.90
6758;DHT22;3416;53.074;8.822;2023-11-19T15:06:32;11.70;99.90
6758;DHT22;3416;53.074;8.822;2023-11-19T15:09:01;11.70;99.90
6758;DHT22;3416;53.074;8.822;2023-11-19T15:11:28;11.70;99.90
6758;DHT22;3416;53.074;8.822;2023-11-19T15:13:54;11.80;99.90
6758;DHT22;3416;53.074;8.822;2023-11-19T15:16:21;11.80;99.90
6758;DHT22;3416;53.074;8.822;2023-11-19T15:18:56;11.80;99.90
6758;DHT22;3416;53.074;8.822;2023-11-19T15:21:25;11.80;99.90
6758;DHT22;3416;53.074;8.822;2023-11-19T15:23:51;11.90;99.90
6758;DHT22;3416;53.074;8.822;2023-11-19T15:26:20;11.90;99.90
6758;DHT22;3416;53.074;8.822;2023-11-19T15:28:47;11.80;99.90
6758;DHT22;3416;53.074;8.822;2023-11-19T15:31:14;11.80;99.90
6758;DHT22;3416;53.074;8.822;2023-11-19T15:33:41;11.70;99.90
6758;DHT22;3416;53.074;8.822;2023-11-19T15:36:09;11.70;99.90
6758;DHT22;3416;53.074;8.822;2023-11-19T15:38:36;11.70;99.90
6758;DHT22;3416;53.074;8.822;2023-11-19T15:41:04;11.70;99.90
6758;DHT22;3416;53.074;8.822;2023-11-19T15:43:34;11.60;99.90
6758;DHT22;3416;53.074;8.822;2023-11-19T15:46:01;11.50;99.90
6758;DHT22;3416;53.074;8.822;2023-11-19T15:48:31;11.50;99.90
6758;DHT22;3416;53.074;8.822;2023-11-19T15:50:58;11.50;99.90
6758;DHT22;3416;53.074;8.822;2023-11-19T15:53:25;11.50;99.90
6758;DHT22;3416;53.074;8.822;2023-11-19T15:55:53;11.60;99.90
6758;DHT22;3416;53.074;8.822;2023-11-19T15:58:20;11.50;99.90
6758;DHT22;3416;53.074;8.822;2023-11-19T16:00:49;11.60;99.90
6758;DHT22;3416;53.074;8.822;2023-11-19T16:03:16;11.60;99.90
6758;DHT22;3416;53.074;8.822;2023-11-19T16:05:43;11.60;99.90
6758;DHT22;3416;53.074;8.822;2023-11-19T16:08:10;11.60;99.90
6758;DHT22;3416;53.074;8.822;2023-11-19T16:10:37;11.70;99.90
6758;DHT22;3416;53.074;8.822;2023-11-19T16:13:08;11.70;99.90
6758;DHT22;3416;53.074;8.822;2023-11-19T16:15:35;11.80;99.90
6758;DHT22;3416;53.074;8.822;2023-11-19T16:18:03;11.80;99.90
6758;DHT22;3416;53.074;8.822;2023-11-19T16:20:31;11.80;99.90